logo
Search for airport 
image banner adimage banner adimage banner ad
image banner ad

SCKP - Coposa

Located in Pica, Chile

ICAO - SCKP, IATA - CPP

Data provided by Airmate  

General information

Coordinates: S20°45'6" W68°40'57"
Elevation is 12468 feet MSL.
Magnetic variation is -7° East
View others Airports in Tarapacá

Operational data

Special qualification required
Current time UTC:
Current local time:
Weather at : - ( 0 km )
METAR: PKWA 232040Z AUTO 06005KT 10SM CLR 29/24 A2981 RMK AO2 T02870244
View NOTAMs / SUP AIP / TFR affecting this airport [VIEW]
Communications frequencies: [VIEW]

Runways:

RWY identifierQFULength (ft)Width (ft)SurfaceLDA (ft)
17170°1053499ASPH
35350°1053499ASPH

Airport contact information

Address: Pica Chile

Satellite view of SCKP